METAR AND TAF INFORMATION


GMAD 202130Z 00000KT CAVOK 14/12 Q1014 NOSIG
GMAD 202100Z 25004KT CAVOK 15/12 Q1014 NOSIG
TAF AMD GMAD 201700Z 2018/2124 20006KT 8000 FEW020 TEMPO 2103/2108 2000 BR BKN006 BECMG 2112/2114 26012KT CAVOK

 AIRPORT MAP

 RUNWAY INFORMATION
Runway 10 Runway length 10499 ft Runway width 148 ft
Runway elevation 198 ft Runway displaced threshold 0 ft Runway heading 92
Runway 28 Runway length 10499 ft Runway width 148 ft
Runway elevation 254 ft Runway displaced threshold 0 ft Runway heading 272

 AIRPORT FREQUENCIES
Type APP Name AGADIR APP Frequency 120.9 MHZ
Type TWR Name AGADIR TWR Frequency 119.5 MHZ

 AIRPORT NEAR NAVIGATION AIDS
Type VOR-DME Name Agadir Frequency 117200 KHZ
Type NDB Name Agadir Frequency 396 KHZ
Type NDB Name Agadir Frequency 402 KHZ